createdAt,value
2018-11-11T00:00:29.087Z,15.38
2018-11-11T00:02:56.574Z,17.40
2018-11-11T00:05:24.186Z,15.32
2018-11-11T00:07:51.677Z,14.85
2018-11-11T00:10:19.276Z,15.32
2018-11-11T00:12:46.774Z,14.85
2018-11-11T00:15:15.466Z,15.60
2018-11-11T00:17:44.072Z,16.60
2018-11-11T00:20:12.246Z,16.15
2018-11-11T00:22:40.265Z,14.93
2018-11-11T00:25:08.291Z,16.32
2018-11-11T00:27:36.850Z,15.13
2018-11-11T00:30:06.013Z,15.75
2018-11-11T00:32:33.692Z,17.90
2018-11-11T00:35:01.418Z,15.90
2018-11-11T00:37:29.004Z,16.20
2018-11-11T00:39:56.481Z,16.60
2018-11-11T00:42:24.064Z,16.95
2018-11-11T00:44:51.543Z,16.70
2018-11-11T00:47:19.124Z,16.77
2018-11-11T00:49:46.638Z,16.40
2018-11-11T00:52:14.290Z,17.00
2018-11-11T00:54:41.790Z,16.50
2018-11-11T00:57:09.363Z,16.42
2018-11-11T00:59:36.891Z,17.48
2018-11-11T01:02:04.425Z,17.07
2018-11-11T01:04:32.028Z,17.30
2018-11-11T01:06:59.599Z,17.57
2018-11-11T01:09:27.102Z,15.70
2018-11-11T01:11:54.605Z,17.32
2018-11-11T01:14:22.272Z,17.25
2018-11-11T01:16:49.745Z,16.70
2018-11-11T01:19:17.329Z,15.60
2018-11-11T01:21:44.810Z,16.37
2018-11-11T01:24:12.525Z,15.72
2018-11-11T01:26:40.034Z,16.02
2018-11-11T01:29:07.616Z,16.25
2018-11-11T01:31:35.090Z,16.32
2018-11-11T01:34:02.705Z,16.12
2018-11-11T01:36:30.230Z,14.87
2018-11-11T01:38:57.787Z,15.78
2018-11-11T01:41:25.290Z,16.30
2018-11-11T01:43:52.846Z,15.83
2018-11-11T01:46:20.341Z,16.20
2018-11-11T01:48:47.910Z,16.32
2018-11-11T01:51:15.506Z,15.83
2018-11-11T01:53:42.989Z,16.37
2018-11-11T01:56:10.564Z,15.48
2018-11-11T01:58:38.942Z,14.63
2018-11-11T02:01:06.503Z,15.48
2018-11-11T02:03:34.016Z,15.20
2018-11-11T02:06:01.613Z,12.55
2018-11-11T02:08:29.115Z,12.50
2018-11-11T02:10:56.681Z,11.80
2018-11-11T02:13:24.171Z,12.60
2018-11-11T02:15:51.766Z,10.75
2018-11-11T02:18:19.290Z,9.75
2018-11-11T02:20:46.821Z,11.18
2018-11-11T02:23:14.338Z,10.30
2018-11-11T02:25:41.917Z,10.32
2018-11-11T02:28:09.389Z,9.45
2018-11-11T02:30:36.994Z,11.05
2018-11-11T02:33:04.695Z,9.83
2018-11-11T02:35:32.263Z,10.60
2018-11-11T02:37:59.786Z,11.12
2018-11-11T02:40:27.258Z,10.38
2018-11-11T02:42:54.817Z,11.60
2018-11-11T02:45:22.311Z,10.75
2018-11-11T02:47:49.861Z,11.55
2018-11-11T02:50:18.390Z,11.03
2018-11-11T02:52:46.421Z,11.03
2018-11-11T02:55:14.404Z,11.00
2018-11-11T02:57:42.263Z,10.82
2018-11-11T03:00:12.624Z,11.00
2018-11-11T03:02:40.752Z,10.63
2018-11-11T03:05:09.266Z,10.60
2018-11-11T03:07:37.319Z,10.75
2018-11-11T03:10:05.105Z,10.68
2018-11-11T03:12:32.586Z,11.30
2018-11-11T03:15:00.216Z,11.95
2018-11-11T03:17:27.718Z,11.73
2018-11-11T03:19:55.279Z,14.18
2018-11-11T03:22:22.758Z,12.50
2018-11-11T03:24:50.294Z,12.00
2018-11-11T03:27:17.763Z,12.90
2018-11-11T03:29:45.333Z,13.22
2018-11-11T03:32:12.814Z,12.50
2018-11-11T03:34:40.374Z,12.85
2018-11-11T03:37:07.850Z,12.05
2018-11-11T03:39:35.466Z,13.38
2018-11-11T03:42:03.079Z,11.75
2018-11-11T03:44:30.653Z,10.40
2018-11-11T03:46:58.180Z,9.70
2018-11-11T03:49:25.750Z,9.68
2018-11-11T03:51:53.390Z,8.90
2018-11-11T03:54:20.874Z,9.50
2018-11-11T03:56:48.435Z,10.00
2018-11-11T03:59:15.910Z,9.28
2018-11-11T04:01:43.437Z,9.03
2018-11-11T04:04:10.914Z,9.85
2018-11-11T04:06:38.505Z,8.48
2018-11-11T04:09:08.673Z,9.48
2018-11-11T04:11:36.236Z,9.80
2018-11-11T04:14:03.766Z,9.18
2018-11-11T04:16:31.346Z,10.20
2018-11-11T04:18:58.850Z,9.15
2018-11-11T04:21:26.432Z,9.08
2018-11-11T04:23:53.917Z,10.13
2018-11-11T04:26:21.442Z,8.90
2018-11-11T04:28:49.007Z,9.70
2018-11-11T04:31:16.557Z,9.35
2018-11-11T04:33:44.098Z,9.48
2018-11-11T04:36:11.630Z,11.10
2018-11-11T04:38:39.182Z,9.03
2018-11-11T04:41:06.646Z,10.35
2018-11-11T04:43:34.331Z,11.08
2018-11-11T04:46:01.879Z,10.05
2018-11-11T04:48:29.439Z,10.75
2018-11-11T04:50:56.905Z,10.30
2018-11-11T04:53:24.611Z,11.00
2018-11-11T04:55:52.085Z,11.48
2018-11-11T04:58:19.691Z,11.73
2018-11-11T05:00:47.119Z,9.85
2018-11-11T05:03:14.691Z,10.88
2018-11-11T05:05:42.262Z,11.22
2018-11-11T05:08:09.836Z,11.55
2018-11-11T05:10:37.306Z,11.90
2018-11-11T05:13:05.014Z,10.88
2018-11-11T05:15:32.559Z,11.43
2018-11-11T05:18:00.049Z,10.78
2018-11-11T05:20:27.592Z,12.07
2018-11-11T05:22:55.041Z,11.08
2018-11-11T05:25:22.585Z,12.07
2018-11-11T05:27:50.066Z,10.45
2018-11-11T05:30:17.660Z,11.53
2018-11-11T05:32:45.122Z,12.55
2018-11-11T05:35:12.863Z,11.93
2018-11-11T05:37:40.773Z,15.50
2018-11-11T05:40:09.270Z,13.38
2018-11-11T05:42:36.913Z,13.30
2018-11-11T05:45:05.705Z,12.30
2018-11-11T05:47:33.212Z,11.75
2018-11-11T05:50:00.813Z,11.30
2018-11-11T05:52:28.349Z,11.50
2018-11-11T05:54:55.927Z,10.85
2018-11-11T05:57:23.382Z,11.80
2018-11-11T05:59:50.857Z,11.48
2018-11-11T06:02:18.414Z,11.97
2018-11-11T06:04:45.934Z,10.82
2018-11-11T06:07:13.503Z,11.70
2018-11-11T06:09:40.978Z,10.78
2018-11-11T06:12:08.541Z,12.30
2018-11-11T06:14:36.020Z,11.55
2018-11-11T06:17:03.662Z,11.20
2018-11-11T06:19:31.146Z,9.95
2018-11-11T06:21:58.706Z,11.80
2018-11-11T06:24:26.163Z,10.43
2018-11-11T06:26:53.763Z,10.05
2018-11-11T06:29:21.236Z,11.18
2018-11-11T06:31:49.480Z,11.50
2018-11-11T06:34:17.098Z,10.10
2018-11-11T06:36:44.564Z,10.20
2018-11-11T06:39:12.757Z,8.23
2018-11-11T06:41:41.238Z,9.55
2018-11-11T06:44:08.826Z,7.75
2018-11-11T06:46:36.407Z,8.13
2018-11-11T06:49:04.053Z,8.10
2018-11-11T06:51:31.636Z,7.70
2018-11-11T06:54:00.096Z,7.42
2018-11-11T06:56:27.738Z,7.85
2018-11-11T06:58:55.291Z,5.55
2018-11-11T07:01:22.815Z,5.65
2018-11-11T07:03:52.727Z,5.53
2018-11-11T07:06:20.637Z,4.70
2018-11-11T07:08:50.109Z,4.90
2018-11-11T07:11:18.818Z,5.10
2018-11-11T07:13:47.025Z,6.03
2018-11-11T07:16:14.593Z,5.33
2018-11-11T07:18:43.242Z,5.70
2018-11-11T07:21:11.708Z,5.70
2018-11-11T07:23:39.935Z,5.08
2018-11-11T07:26:07.407Z,6.92
2018-11-11T07:28:34.973Z,8.35
2018-11-11T07:31:02.614Z,7.05
2018-11-11T07:33:30.226Z,7.03
2018-11-11T07:35:58.373Z,7.05
2018-11-11T07:38:25.873Z,8.40
2018-11-11T07:40:53.540Z,7.72
2018-11-11T07:43:21.091Z,7.85
2018-11-11T07:45:49.351Z,7.83
2018-11-11T07:48:16.933Z,8.40
2018-11-11T07:50:44.515Z,7.95
2018-11-11T07:53:12.692Z,8.58
2018-11-11T07:55:40.290Z,9.23
2018-11-11T07:58:07.764Z,7.47
2018-11-11T08:00:35.299Z,8.25
2018-11-11T08:03:03.019Z,7.50
2018-11-11T08:05:30.635Z,7.45
2018-11-11T08:07:58.310Z,8.03
2018-11-11T08:10:37.208Z,9.15
2018-11-11T08:13:04.767Z,8.60
2018-11-11T08:15:32.420Z,8.63
2018-11-11T08:17:59.921Z,8.68
2018-11-11T08:20:27.494Z,8.20
2018-11-11T08:22:57.185Z,9.73
2018-11-11T08:25:25.499Z,9.08
2018-11-11T08:27:53.076Z,9.43
2018-11-11T08:30:20.550Z,9.10
2018-11-11T08:32:48.157Z,9.10
2018-11-11T08:35:15.681Z,8.98
2018-11-11T08:37:43.295Z,10.08
2018-11-11T08:40:10.806Z,9.05
2018-11-11T08:42:38.384Z,9.00
2018-11-11T08:45:10.997Z,9.33
2018-11-11T08:47:38.594Z,9.98
2018-11-11T08:50:07.238Z,9.33
2018-11-11T08:52:35.108Z,9.85
2018-11-11T08:55:02.713Z,8.93
2018-11-11T08:57:30.296Z,9.65
2018-11-11T08:59:57.983Z,10.55
2018-11-11T09:02:25.599Z,9.63
2018-11-11T09:04:53.202Z,11.00
2018-11-11T09:07:22.108Z,10.70
2018-11-11T09:09:49.651Z,11.05
2018-11-11T09:12:17.859Z,12.28
2018-11-11T09:14:45.612Z,11.93
2018-11-11T09:17:14.316Z,9.98
2018-11-11T09:19:41.928Z,8.65
2018-11-11T09:22:09.437Z,8.85
2018-11-11T09:24:37.065Z,8.93
2018-11-11T09:27:04.809Z,9.83
2018-11-11T09:29:32.550Z,8.65
2018-11-11T09:32:00.326Z,9.45
2018-11-11T09:34:27.948Z,7.95
2018-11-11T09:36:55.435Z,7.20
2018-11-11T09:39:22.978Z,7.55
2018-11-11T09:41:50.602Z,7.10
2018-11-11T09:44:18.209Z,7.42
2018-11-11T09:46:46.860Z,7.65
2018-11-11T09:49:14.592Z,6.95
2018-11-11T09:51:43.096Z,6.60
2018-11-11T09:54:11.384Z,5.78
2018-11-11T09:56:38.952Z,6.08
2018-11-11T09:59:13.837Z,7.12
2018-11-11T10:01:41.529Z,4.25
2018-11-11T10:04:19.337Z,3.50
2018-11-11T10:07:05.129Z,2.70
2018-11-11T10:11:40.946Z,2.20
2018-11-11T10:16:21.589Z,2.37
2018-11-11T10:18:53.123Z,2.90
2018-11-11T10:21:29.710Z,2.20
2018-11-11T10:25:03.605Z,1.98
2018-11-11T10:29:40.711Z,2.80
2018-11-11T10:32:24.495Z,2.10
2018-11-11T10:35:33.547Z,2.52
2018-11-11T10:38:04.108Z,2.50
2018-11-11T10:40:35.017Z,2.55
2018-11-11T10:43:08.442Z,2.20
2018-11-11T10:45:40.661Z,2.42
2018-11-11T10:48:09.133Z,2.40
2018-11-11T10:50:40.754Z,2.45
2018-11-11T10:53:08.534Z,2.40
2018-11-11T10:55:36.110Z,2.05
2018-11-11T10:58:04.503Z,2.42
2018-11-11T11:00:37.722Z,1.95
2018-11-11T11:03:10.998Z,2.22
2018-11-11T11:05:38.611Z,2.20
2018-11-11T11:08:06.302Z,2.05
2018-11-11T11:10:33.905Z,2.30
2018-11-11T11:13:01.453Z,2.10
2018-11-11T11:15:29.181Z,2.52
2018-11-11T11:17:56.733Z,2.90
2018-11-11T11:20:24.353Z,2.98
2018-11-11T11:22:52.019Z,2.37
2018-11-11T11:25:19.655Z,2.90
2018-11-11T11:27:47.168Z,3.08
2018-11-11T11:30:14.843Z,2.47
2018-11-11T11:32:42.378Z,2.58
2018-11-11T11:35:10.200Z,2.10
2018-11-11T11:37:38.350Z,2.83
2018-11-11T11:40:06.990Z,2.90
2018-11-11T11:42:34.701Z,2.50
2018-11-11T11:45:02.299Z,2.60
2018-11-11T11:47:29.989Z,2.80
2018-11-11T11:49:57.446Z,2.27
2018-11-11T11:52:25.090Z,2.95
2018-11-11T11:54:52.620Z,1.60
2018-11-11T11:57:20.229Z,2.80
2018-11-11T11:59:47.759Z,2.42
2018-11-11T12:02:15.371Z,2.52
2018-11-11T12:04:42.895Z,2.37
2018-11-11T12:07:10.539Z,2.50
2018-11-11T12:09:38.064Z,2.70
2018-11-11T12:12:05.915Z,2.35
2018-11-11T12:14:33.561Z,2.30
2018-11-11T12:17:01.681Z,2.42
2018-11-11T12:19:29.234Z,3.10
2018-11-11T12:21:56.857Z,3.27
2018-11-11T12:24:24.455Z,2.60
2018-11-11T12:26:52.114Z,3.05
2018-11-11T12:29:19.717Z,2.65
2018-11-11T12:31:47.333Z,2.60
2018-11-11T12:34:14.988Z,3.25
2018-11-11T12:36:42.514Z,3.20
2018-11-11T12:39:11.542Z,3.05
2018-11-11T12:41:40.348Z,2.90
2018-11-11T12:44:09.149Z,3.22
2018-11-11T12:46:36.722Z,3.10
2018-11-11T12:49:04.647Z,3.00
2018-11-11T12:51:32.307Z,3.45
2018-11-11T12:54:00.027Z,2.98
2018-11-11T12:56:27.579Z,3.17
2018-11-11T12:58:55.661Z,3.10
2018-11-11T13:01:23.302Z,3.17
2018-11-11T13:03:50.879Z,2.90
2018-11-11T13:06:18.477Z,2.72
2018-11-11T13:08:46.021Z,3.10
2018-11-11T13:11:13.688Z,3.27
2018-11-11T13:13:41.170Z,3.00
2018-11-11T13:16:09.277Z,2.60
2018-11-11T13:18:36.875Z,2.58
2018-11-11T13:21:04.761Z,2.80
2018-11-11T13:23:32.589Z,2.42
2018-11-11T13:26:01.088Z,3.08
2018-11-11T13:28:29.114Z,2.60
2018-11-11T13:30:56.745Z,2.83
2018-11-11T13:33:24.281Z,2.47
2018-11-11T13:35:51.965Z,3.20
2018-11-11T13:38:19.599Z,3.20
2018-11-11T13:40:47.132Z,3.15
2018-11-11T13:43:14.713Z,3.02
2018-11-11T13:45:42.254Z,2.90
2018-11-11T13:48:09.861Z,2.67
2018-11-11T13:50:37.386Z,2.80
2018-11-11T13:53:05.074Z,2.70
2018-11-11T13:55:32.614Z,3.20
2018-11-11T13:58:00.230Z,3.62
2018-11-11T14:00:28.105Z,3.17
2018-11-11T14:02:55.919Z,2.77
2018-11-11T14:05:23.478Z,3.05
2018-11-11T14:07:51.198Z,3.02
2018-11-11T14:10:18.738Z,2.87
2018-11-11T14:12:46.386Z,2.90
2018-11-11T14:15:17.209Z,2.60
2018-11-11T14:17:45.527Z,2.62
2018-11-11T14:20:14.429Z,2.80
2018-11-11T14:22:43.115Z,2.70
2018-11-11T14:25:13.826Z,3.45
2018-11-11T14:27:41.429Z,2.30
2018-11-11T14:30:12.496Z,3.10
2018-11-11T14:32:40.160Z,3.15
2018-11-11T14:35:08.571Z,3.15
2018-11-11T14:37:36.458Z,2.70
2018-11-11T14:40:07.362Z,2.65
2018-11-11T14:42:34.909Z,2.60
2018-11-11T14:45:02.663Z,2.60
2018-11-11T14:47:30.189Z,2.40
2018-11-11T14:49:57.955Z,3.72
2018-11-11T14:52:25.709Z,3.30
2018-11-11T14:54:53.182Z,2.65
2018-11-11T14:57:20.688Z,2.52
2018-11-11T14:59:48.294Z,2.60
2018-11-11T15:02:15.883Z,3.35
2018-11-11T15:04:43.458Z,3.10
2018-11-11T15:07:11.006Z,2.80
2018-11-11T15:09:38.540Z,2.87
2018-11-11T15:12:06.150Z,2.70
2018-11-11T15:14:33.658Z,3.60
2018-11-11T15:17:01.515Z,4.00
2018-11-11T15:19:29.125Z,2.65
2018-11-11T15:21:56.629Z,2.67
2018-11-11T15:24:24.182Z,2.37
2018-11-11T15:26:51.737Z,2.33
2018-11-11T15:29:19.256Z,3.12
2018-11-11T15:31:48.874Z,3.30
2018-11-11T15:34:16.392Z,2.67
2018-11-11T15:36:44.019Z,2.35
2018-11-11T15:39:11.659Z,2.80
2018-11-11T15:41:39.921Z,2.90
2018-11-11T15:44:07.434Z,2.92
2018-11-11T15:49:50.050Z,2.70
2018-11-11T15:52:17.813Z,2.95
2018-11-11T15:54:45.236Z,2.72
2018-11-11T15:57:12.829Z,2.37
2018-11-11T15:59:40.331Z,2.55
2018-11-11T16:02:08.005Z,2.42
2018-11-11T16:04:35.537Z,2.67
2018-11-11T16:07:03.223Z,2.58
2018-11-11T16:09:30.734Z,2.75
2018-11-11T16:11:58.400Z,2.40
2018-11-11T16:14:25.990Z,2.70
2018-11-11T16:16:53.517Z,2.55
2018-11-11T16:19:21.315Z,3.35
2018-11-11T16:21:51.021Z,2.47
2018-11-11T16:24:18.677Z,2.30
2018-11-11T16:26:46.203Z,3.15
2018-11-11T16:29:17.374Z,6.62
2018-11-11T16:31:44.969Z,10.13
2018-11-11T16:34:12.602Z,9.65
2018-11-11T16:36:40.154Z,5.95
2018-11-11T16:39:09.528Z,4.30
2018-11-11T16:41:37.156Z,4.22
2018-11-11T16:44:04.822Z,3.92
2018-11-11T16:46:33.122Z,3.40
2018-11-11T16:49:00.812Z,4.28
2018-11-11T16:51:35.957Z,4.12
2018-11-11T16:54:04.028Z,3.70
2018-11-11T16:56:31.547Z,3.77
2018-11-11T16:58:59.207Z,4.45
2018-11-11T17:01:26.814Z,3.30
2018-11-11T17:03:54.357Z,4.75
2018-11-11T17:06:22.097Z,4.50
2018-11-11T17:08:49.672Z,3.45
2018-11-11T17:11:17.283Z,4.37
2018-11-11T17:13:44.913Z,5.37
2018-11-11T17:16:12.501Z,4.28
2018-11-11T17:18:40.091Z,4.60
2018-11-11T17:21:07.820Z,5.25
2018-11-11T17:23:35.390Z,5.00
2018-11-11T17:26:03.037Z,4.40
2018-11-11T17:28:30.585Z,4.58
2018-11-11T17:30:58.205Z,5.55
2018-11-11T17:33:25.743Z,5.37
2018-11-11T17:35:53.384Z,5.65
2018-11-11T17:38:21.024Z,5.70
2018-11-11T17:40:48.599Z,4.50
2018-11-11T17:43:16.198Z,5.33
2018-11-11T17:45:43.841Z,6.12
2018-11-11T17:48:11.394Z,8.70
2018-11-11T17:50:38.929Z,7.35
2018-11-11T17:53:06.982Z,4.90
2018-11-11T17:55:34.543Z,4.75
2018-11-11T17:58:02.221Z,5.45
2018-11-11T18:00:30.684Z,5.15
2018-11-11T18:02:59.164Z,5.30
2018-11-11T18:05:27.631Z,6.42
2018-11-11T18:07:55.162Z,7.10
2018-11-11T18:10:23.769Z,6.62
2018-11-11T18:12:51.428Z,6.60
2018-11-11T18:15:22.595Z,5.35
2018-11-11T18:17:50.350Z,6.90
2018-11-11T18:20:21.232Z,6.65
2018-11-11T18:22:49.666Z,7.33
2018-11-11T18:25:17.391Z,5.80
2018-11-11T18:27:45.137Z,5.58
2018-11-11T18:30:17.613Z,5.15
2018-11-11T18:32:45.527Z,4.85
2018-11-11T18:35:14.324Z,5.05
2018-11-11T18:37:42.046Z,5.37
2018-11-11T18:40:11.549Z,5.92
2018-11-11T18:42:53.311Z,5.17
2018-11-11T18:45:48.231Z,5.60
2018-11-11T18:48:47.851Z,4.78
2018-11-11T18:57:29.518Z,5.80
2018-11-11T18:59:57.113Z,6.00
2018-11-11T19:02:26.046Z,5.83
2018-11-11T19:04:53.719Z,5.70
2018-11-11T19:07:21.294Z,5.87
2018-11-11T19:09:48.876Z,5.85
2018-11-11T19:12:16.559Z,5.28
2018-11-11T19:14:47.268Z,6.08
2018-11-11T19:17:14.988Z,5.42
2018-11-11T19:19:43.166Z,5.40
2018-11-11T19:22:10.871Z,6.00
2018-11-11T19:24:38.589Z,5.80
2018-11-11T19:27:06.163Z,5.65
2018-11-11T19:29:33.710Z,5.87
2018-11-11T19:32:01.698Z,5.53
2018-11-11T19:34:35.487Z,5.42
2018-11-11T19:37:03.154Z,5.28
2018-11-11T19:39:30.747Z,5.60
2018-11-11T19:41:58.453Z,5.80
2018-11-11T19:44:25.960Z,5.90
2018-11-11T19:46:53.575Z,5.90
2018-11-11T19:49:21.262Z,5.20
2018-11-11T19:51:49.093Z,6.10
2018-11-11T19:54:16.875Z,5.40
2018-11-11T19:56:44.652Z,5.33
2018-11-11T19:59:12.337Z,4.97
2018-11-11T20:01:40.156Z,4.47
2018-11-11T20:04:07.865Z,4.85
2018-11-11T20:06:35.516Z,5.33
2018-11-11T20:09:05.332Z,5.40
2018-11-11T20:11:33.090Z,5.20
2018-11-11T20:14:00.986Z,5.10
2018-11-11T20:16:28.599Z,5.55
2018-11-11T20:18:56.226Z,5.20
2018-11-11T20:21:23.755Z,5.42
2018-11-11T20:23:51.461Z,5.70
2018-11-11T20:26:19.006Z,5.55
2018-11-11T20:28:46.598Z,4.95
2018-11-11T20:31:14.156Z,5.35
2018-11-11T20:33:41.787Z,5.72
2018-11-11T20:36:09.338Z,4.85
2018-11-11T20:38:36.941Z,5.10
2018-11-11T20:41:04.668Z,6.05
2018-11-11T20:43:32.361Z,4.20
2018-11-11T20:45:59.962Z,4.67
2018-11-11T20:48:27.467Z,4.70
2018-11-11T20:50:55.081Z,5.00
2018-11-11T20:53:22.719Z,4.55
2018-11-11T20:55:50.322Z,4.80
2018-11-11T20:58:17.878Z,4.37
2018-11-11T21:00:45.555Z,4.75
2018-11-11T21:03:13.110Z,4.60
2018-11-11T21:05:40.626Z,4.53
2018-11-11T21:08:08.254Z,4.35
2018-11-11T21:10:35.861Z,4.28
2018-11-11T21:13:03.406Z,3.60
2018-11-11T21:15:31.703Z,4.20
2018-11-11T21:17:59.237Z,4.20
2018-11-11T21:20:28.323Z,3.90
2018-11-11T21:22:55.972Z,4.00
2018-11-11T21:25:23.742Z,3.65
2018-11-11T21:27:51.556Z,3.50
2018-11-11T21:30:23.354Z,4.05
2018-11-11T21:32:50.993Z,4.17
2018-11-11T21:35:18.542Z,4.15
2018-11-11T21:37:46.139Z,4.80
2018-11-11T21:40:15.657Z,4.30
2018-11-11T21:42:44.020Z,4.05
2018-11-11T21:45:13.686Z,4.20
2018-11-11T21:47:41.719Z,4.22
2018-11-11T21:50:11.235Z,4.15
2018-11-11T21:52:38.974Z,3.75
2018-11-11T21:55:06.821Z,3.37
2018-11-11T21:57:34.437Z,3.55
2018-11-11T22:00:02.074Z,3.40
2018-11-11T22:02:29.590Z,3.92
2018-11-11T22:04:57.238Z,3.67
2018-11-11T22:07:24.776Z,3.83
2018-11-11T22:09:52.579Z,4.50
2018-11-11T22:12:19.956Z,4.50
2018-11-11T22:14:47.726Z,3.90
2018-11-11T22:17:15.245Z,4.05
2018-11-11T22:19:42.862Z,3.85
2018-11-11T22:22:10.379Z,4.30
2018-11-11T22:24:37.944Z,3.85
2018-11-11T22:27:05.845Z,3.60
2018-11-11T22:29:33.381Z,3.65
2018-11-11T22:32:00.992Z,3.70
2018-11-11T22:34:28.704Z,3.58
2018-11-11T22:36:56.238Z,4.00
2018-11-11T22:39:23.757Z,2.92
2018-11-11T22:41:51.387Z,2.92
2018-11-11T22:44:18.924Z,3.27
2018-11-11T22:46:46.519Z,3.22
2018-11-11T22:49:14.023Z,3.65
2018-11-11T22:51:41.671Z,3.50
2018-11-11T22:54:09.178Z,3.35
2018-11-11T22:56:36.730Z,3.37
2018-11-11T22:59:04.522Z,3.50
2018-11-11T23:01:32.131Z,3.92
2018-11-11T23:03:59.659Z,3.05
2018-11-11T23:06:27.305Z,3.20
2018-11-11T23:08:54.953Z,3.50
2018-11-11T23:11:22.527Z,3.45
2018-11-11T23:13:50.053Z,4.08
2018-11-11T23:16:17.661Z,4.00
2018-11-11T23:18:45.240Z,3.95
2018-11-11T23:21:12.811Z,3.42
2018-11-11T23:23:40.318Z,3.27
2018-11-11T23:26:07.907Z,3.50
2018-11-11T23:28:35.577Z,3.50
2018-11-11T23:31:03.122Z,3.33
2018-11-11T23:33:30.733Z,3.10
2018-11-11T23:35:58.217Z,3.37
2018-11-11T23:38:25.808Z,3.10
2018-11-11T23:40:53.287Z,2.58
2018-11-11T23:43:20.886Z,2.90
2018-11-11T23:45:48.378Z,2.60
2018-11-11T23:48:15.965Z,3.05
2018-11-11T23:50:43.430Z,2.70
2018-11-11T23:53:11.098Z,3.15
2018-11-11T23:55:38.551Z,2.83
2018-11-11T23:58:06.106Z,3.17
